Time;durP1;ratioP1;P1;durP2;ratioP2;P2;SDS_P1;SDS_P2;PMS_P1;PMS_P2;Temp;Humidity;BMP_temperature;BMP_pressure;BME280_temperature;BME280_humidity;BME280_pressure;Samples;Min_cycle;Max_cycle;Signal;HPM_P1;HPM_P2
2021/05/22 00:02:18;;;;;;;3.83;1.90;;;7.30;99.90;;;;;;5070216;28;20050;-59
2021/05/22 00:04:44;;;;;;;2.33;1.35;;;7.20;99.90;;;;;;5070446;28;20027;-57
2021/05/22 00:07:09;;;;;;;2.13;1.52;;;7.20;99.90;;;;;;5070445;28;20036;-59
2021/05/22 00:09:35;;;;;;;2.55;1.88;;;7.20;99.90;;;;;;5070128;28;20112;-58
2021/05/22 00:12:00;;;;;;;4.03;1.90;;;7.20;99.90;;;;;;5073270;28;20095;-59
2021/05/22 00:14:26;;;;;;;4.00;1.92;;;7.10;99.90;;;;;;5073208;28;20111;-59
2021/05/22 00:16:51;;;;;;;3.00;1.90;;;7.10;99.90;;;;;;5074449;28;20028;-58
2021/05/22 00:19:17;;;;;;;4.72;1.88;;;7.10;99.90;;;;;;5073980;28;20025;-56
2021/05/22 00:21:43;;;;;;;4.60;1.70;;;7.10;99.90;;;;;;5074387;28;20038;-59
2021/05/22 00:24:09;;;;;;;2.28;1.65;;;7.00;99.90;;;;;;5073933;28;20035;-57
2021/05/22 00:26:35;;;;;;;2.65;1.70;;;7.00;99.90;;;;;;5074400;28;20021;-58
2021/05/22 00:29:01;;;;;;;3.55;1.75;;;7.00;99.90;;;;;;5073211;28;20075;-57
2021/05/22 00:31:26;;;;;;;2.45;1.65;;;7.00;99.90;;;;;;5074002;28;20067;-58
2021/05/22 00:33:51;;;;;;;5.43;2.45;;;6.90;99.90;;;;;;5072565;28;20491;-58
2021/05/22 00:36:17;;;;;;;3.17;2.15;;;6.90;99.90;;;;;;5073930;28;20032;-59
2021/05/22 00:38:42;;;;;;;6.95;1.95;;;6.90;99.90;;;;;;5073587;28;20025;-59
2021/05/22 00:41:08;;;;;;;3.72;1.95;;;6.90;99.90;;;;;;5072130;28;20091;-59
2021/05/22 00:43:33;;;;;;;3.30;2.00;;;6.90;99.90;;;;;;5070916;28;20052;-58
2021/05/22 00:45:59;;;;;;;2.35;1.40;;;6.90;99.90;;;;;;5074031;28;20084;-58
2021/05/22 00:48:24;;;;;;;5.43;1.83;;;6.90;99.90;;;;;;5073433;28;20032;-57
2021/05/22 00:50:53;;;;;;;3.15;1.70;;;6.80;99.90;;;;;;5076504;28;20040;-58
2021/05/22 00:53:19;;;;;;;5.65;1.90;;;6.80;99.90;;;;;;5074211;28;20064;-59
2021/05/22 00:55:45;;;;;;;4.72;1.80;;;6.80;99.90;;;;;;5073350;28;20045;-58
2021/05/22 00:58:11;;;;;;;2.45;1.90;;;6.80;99.90;;;;;;5070600;28;20094;-57
2021/05/22 01:00:48;;;;;;;5.07;2.67;;;6.80;99.90;;;;;;5073690;28;20021;-59
2021/05/22 01:03:18;;;;;;;3.25;1.80;;;6.80;99.90;;;;;;5073363;28;20147;-57
2021/05/22 01:05:44;;;;;;;3.63;2.40;;;6.80;99.90;;;;;;5073165;28;20025;-57
2021/05/22 01:08:17;;;;;;;4.53;2.03;;;6.80;99.90;;;;;;5073159;28;20032;-58
2021/05/22 01:10:45;;;;;;;5.68;2.10;;;6.70;99.90;;;;;;5073203;28;20360;-58
2021/05/22 01:13:13;;;;;;;7.35;1.77;;;6.60;99.90;;;;;;5072374;28;20028;-58
2021/05/22 01:15:40;;;;;;;5.18;1.75;;;6.60;99.90;;;;;;5073351;28;20012;-59
2021/05/22 01:18:07;;;;;;;6.60;2.17;;;6.60;99.90;;;;;;5073668;28;20498;-59
2021/05/22 01:20:49;;;;;;;2.60;1.98;;;6.60;99.90;;;;;;5074570;28;20020;-58
2021/05/22 01:23:22;;;;;;;4.70;1.90;;;6.60;99.90;;;;;;5074446;28;20040;-58
2021/05/22 01:25:52;;;;;;;4.07;1.80;;;6.60;99.90;;;;;;5074955;28;20029;-57
2021/05/22 01:28:18;;;;;;;2.58;2.28;;;6.50;99.90;;;;;;5073699;28;20052;-56
2021/05/22 01:30:45;;;;;;;5.63;1.75;;;6.40;99.90;;;;;;5074782;28;20071;-56
2021/05/22 01:33:11;;;;;;;5.72;2.17;;;6.40;99.90;;;;;;5073305;28;20082;-54
2021/05/22 01:35:39;;;;;;;4.10;2.22;;;6.40;99.90;;;;;;5074485;28;20032;-58
2021/05/22 01:38:05;;;;;;;4.28;1.77;;;6.40;99.90;;;;;;5074528;28;20112;-57
2021/05/22 01:40:31;;;;;;;2.95;2.03;;;6.40;99.90;;;;;;5074371;28;20115;-57
2021/05/22 01:42:56;;;;;;;3.33;1.60;;;6.40;99.90;;;;;;5073577;28;20362;-58
2021/05/22 01:45:32;;;;;;;6.13;1.73;;;6.40;99.90;;;;;;5074212;28;20060;-58
2021/05/22 01:47:59;;;;;;;5.82;1.95;;;6.40;99.90;;;;;;5074497;28;20024;-58
2021/05/22 01:50:28;;;;;;;7.60;2.38;;;6.50;99.90;;;;;;5074224;28;20099;-56
2021/05/22 01:52:56;;;;;;;3.97;1.90;;;6.60;99.90;;;;;;5094251;28;20039;-55
2021/05/22 01:55:22;;;;;;;7.47;2.05;;;6.70;99.90;;;;;;5094214;28;20032;-58
2021/05/22 01:57:49;;;;;;;4.25;2.17;;;6.70;99.90;;;;;;5093382;28;20036;-56
2021/05/22 02:00:16;;;;;;;5.13;1.83;;;6.80;99.90;;;;;;5094273;28;20028;-58
2021/05/22 02:02:55;;;;;;;5.18;2.28;;;6.90;99.90;;;;;;5094574;28;20023;-59
2021/05/22 02:05:20;;;;;;;5.38;1.95;;;6.90;99.90;;;;;;5094109;28;20016;-58
2021/05/22 02:07:48;;;;;;;2.85;2.00;;;6.90;99.90;;;;;;5088043;28;20146;-59
2021/05/22 02:10:14;;;;;;;7.40;2.42;;;6.90;99.90;;;;;;5070424;28;20180;-58
2021/05/22 02:12:41;;;;;;;5.30;1.80;;;6.90;99.90;;;;;;5072869;28;20032;-59
2021/05/22 02:15:10;;;;;;;4.35;1.83;;;6.90;99.90;;;;;;5073900;28;20090;-58
2021/05/22 02:17:38;;;;;;;3.97;1.80;;;6.90;99.90;;;;;;5073805;28;20021;-58
2021/05/22 02:20:06;;;;;;;2.85;1.80;;;7.00;99.90;;;;;;5073859;28;20020;-58
2021/05/22 02:22:33;;;;;;;4.13;1.95;;;6.90;99.90;;;;;;5073498;28;20034;-57
2021/05/22 02:24:59;;;;;;;5.57;2.35;;;6.80;99.90;;;;;;5073631;28;20426;-58
2021/05/22 02:27:24;;;;;;;2.63;1.40;;;6.80;99.90;;;;;;5072625;28;20111;-58
2021/05/22 02:29:51;;;;;;;6.43;1.90;;;6.80;99.90;;;;;;5072268;28;20472;-55
2021/05/22 02:32:21;;;;;;;2.85;1.77;;;6.80;99.90;;;;;;5073634;28;20479;-59
2021/05/22 02:34:51;;;;;;;4.22;1.90;;;6.80;99.90;;;;;;5072897;28;20036;-57
2021/05/22 02:37:20;;;;;;;4.57;1.75;;;6.80;99.90;;;;;;5073301;28;20028;-58
2021/05/22 02:39:50;;;;;;;7.50;1.80;;;6.70;99.90;;;;;;5073227;28;20027;-55
2021/05/22 02:42:16;;;;;;;3.50;1.48;;;6.70;99.90;;;;;;5073417;28;20031;-59
2021/05/22 02:44:45;;;;;;;4.40;1.77;;;6.70;99.90;;;;;;5070318;28;20028;-60
2021/05/22 02:47:12;;;;;;;7.80;2.10;;;6.80;99.90;;;;;;5073379;28;20036;-58
2021/05/22 02:49:44;;;;;;;4.90;1.88;;;6.90;99.90;;;;;;5073111;28;20111;-59
2021/05/22 02:52:13;;;;;;;2.53;1.67;;;6.90;99.90;;;;;;5086700;28;20115;-58
2021/05/22 02:54:41;;;;;;;3.80;1.73;;;7.00;99.90;;;;;;5093124;28;20055;-57
2021/05/22 02:57:08;;;;;;;3.88;1.48;;;7.10;99.90;;;;;;5093363;28;20085;-57
2021/05/22 02:59:35;;;;;;;5.43;1.88;;;7.20;99.90;;;;;;5092235;28;20022;-57
2021/05/22 03:02:02;;;;;;;3.10;1.80;;;7.30;99.90;;;;;;5093319;28;20038;-58
2021/05/22 03:04:29;;;;;;;2.08;1.50;;;7.40;99.90;;;;;;5091743;28;20016;-58
2021/05/22 03:06:55;;;;;;;2.55;1.40;;;7.50;99.90;;;;;;5092921;28;20020;-55
2021/05/22 03:09:20;;;;;;;4.20;1.58;;;7.60;99.90;;;;;;5075595;28;20024;-59
2021/05/22 03:11:46;;;;;;;3.13;1.40;;;7.70;99.90;;;;;;5073007;28;20035;-59
2021/05/22 03:14:11;;;;;;;3.15;1.88;;;7.80;99.90;;;;;;5071855;28;20029;-59
2021/05/22 03:16:37;;;;;;;1.85;1.38;;;7.80;99.90;;;;;;5072698;28;20383;-59
2021/05/22 03:19:04;;;;;;;6.10;1.67;;;7.80;99.90;;;;;;5072790;28;20059;-58
2021/05/22 03:21:30;;;;;;;5.00;1.55;;;7.90;99.90;;;;;;5072494;28;20031;-57
2021/05/22 03:23:56;;;;;;;3.22;1.50;;;7.90;99.90;;;;;;5072820;28;20100;-58
2021/05/22 03:26:21;;;;;;;3.95;1.40;;;7.90;99.90;;;;;;5072569;28;20551;-58
2021/05/22 03:28:47;;;;;;;4.50;1.90;;;8.00;99.90;;;;;;5071801;28;20062;-57
2021/05/22 03:31:12;;;;;;;2.28;1.50;;;8.10;99.90;;;;;;5072646;28;20078;-57
2021/05/22 03:33:38;;;;;;;2.15;1.23;;;8.00;99.90;;;;;;5072472;28;20108;-58
2021/05/22 03:36:04;;;;;;;4.75;1.75;;;8.10;99.90;;;;;;5072443;28;20460;-58
2021/05/22 03:38:30;;;;;;;4.93;1.65;;;8.10;99.90;;;;;;5072483;28;20095;-59
2021/05/22 03:40:55;;;;;;;2.67;1.40;;;8.10;99.90;;;;;;5072426;28;20491;-58
2021/05/22 03:43:21;;;;;;;4.13;1.30;;;8.20;99.90;;;;;;5071534;28;20021;-55
2021/05/22 03:45:46;;;;;;;2.05;1.42;;;8.20;99.90;;;;;;5071430;28;20028;-59
2021/05/22 03:48:12;;;;;;;4.53;1.50;;;8.30;99.90;;;;;;5072604;28;20029;-57
2021/05/22 03:50:37;;;;;;;3.90;1.45;;;8.40;99.90;;;;;;5073023;28;20052;-56
2021/05/22 03:53:03;;;;;;;4.70;1.50;;;8.40;99.90;;;;;;5092482;28;20030;-58
2021/05/22 03:55:29;;;;;;;3.55;1.67;;;8.60;99.90;;;;;;5092339;28;20109;-58
2021/05/22 03:57:55;;;;;;;3.50;1.55;;;8.80;99.90;;;;;;5091718;28;20075;-58
2021/05/22 04:00:20;;;;;;;6.68;1.90;;;8.90;99.90;;;;;;5092611;28;20367;-58
2021/05/22 04:02:46;;;;;;;7.18;1.60;;;9.00;99.90;;;;;;5092582;28;20435;-58
2021/05/22 04:05:12;;;;;;;3.22;1.70;;;9.00;99.90;;;;;;5073283;28;20027;-58
2021/05/22 04:07:37;;;;;;;3.38;1.20;;;9.10;99.90;;;;;;5068889;28;20028;-56
2021/05/22 04:10:04;;;;;;;3.33;1.55;;;9.30;99.90;;;;;;5052153;28;20357;-57
2021/05/22 04:12:30;;;;;;;1.50;1.17;;;9.50;99.90;;;;;;5049684;28;20059;-58
2021/05/22 04:14:55;;;;;;;2.08;1.30;;;9.70;99.90;;;;;;5052122;28;20072;-58
2021/05/22 04:17:21;;;;;;;1.80;1.42;;;9.90;99.90;;;;;;5051967;28;20056;-58
2021/05/22 04:19:46;;;;;;;2.92;1.40;;;9.90;99.90;;;;;;5051706;28;20032;-58
2021/05/22 04:22:12;;;;;;;3.25;1.52;;;10.00;99.90;;;;;;5052042;28;20424;-57
2021/05/22 04:24:37;;;;;;;7.45;1.50;;;10.10;99.90;;;;;;5051620;28;20070;-58
2021/05/22 04:27:03;;;;;;;2.33;1.10;;;10.20;99.90;;;;;;5051867;28;20032;-58
2021/05/22 04:29:29;;;;;;;3.67;1.70;;;10.30;99.90;;;;;;5050859;28;20075;-58
2021/05/22 04:31:54;;;;;;;3.88;1.67;;;10.40;99.90;;;;;;5051885;28;20357;-58
2021/05/22 04:34:20;;;;;;;3.10;1.50;;;10.50;99.90;;;;;;5051777;28;20037;-57
2021/05/22 04:36:45;;;;;;;2.03;1.40;;;10.60;99.90;;;;;;5051609;28;20466;-57
2021/05/22 04:39:11;;;;;;;2.08;1.30;;;10.80;99.90;;;;;;5051825;28;20028;-57
2021/05/22 04:41:37;;;;;;;4.93;1.48;;;10.90;99.90;;;;;;5051730;28;20107;-59
2021/05/22 04:44:03;;;;;;;2.20;1.20;;;11.00;99.90;;;;;;5049627;28;20025;-58
2021/05/22 04:46:28;;;;;;;3.50;1.30;;;11.10;99.90;;;;;;5050516;28;20029;-58
2021/05/22 04:48:55;;;;;;;2.08;1.10;;;11.20;99.90;;;;;;5051884;28;20041;-57
2021/05/22 04:51:22;;;;;;;4.75;1.33;;;11.40;99.90;;;;;;5064151;28;20016;-59
2021/05/22 04:53:47;;;;;;;2.75;1.45;;;11.80;99.90;;;;;;5091633;28;20194;-58
2021/05/22 04:56:13;;;;;;;4.00;1.48;;;12.10;99.90;;;;;;5091934;28;20111;-58
2021/05/22 04:58:38;;;;;;;1.60;1.05;;;12.20;99.90;;;;;;5094521;28;20116;-58
2021/05/22 05:01:04;;;;;;;1.10;0.93;;;12.20;99.90;;;;;;5093558;28;20028;-56
2021/05/22 05:03:29;;;;;;;1.20;1.10;;;12.30;99.90;;;;;;5095413;28;20024;-58
2021/05/22 05:05:55;;;;;;;2.17;1.20;;;12.40;99.90;;;;;;5095309;28;20031;-55
2021/05/22 05:08:21;;;;;;;1.40;0.90;;;13.20;99.90;;;;;;5086578;28;20028;-59
2021/05/22 05:10:48;;;;;;;1.42;0.90;;;13.70;99.90;;;;;;5074936;28;20464;-58
2021/05/22 05:13:17;;;;;;;2.25;1.17;;;14.40;99.90;;;;;;5072968;28;20028;-58
2021/05/22 05:15:43;;;;;;;0.80;0.80;;;15.00;98.50;;;;;;5074843;28;20032;-58
2021/05/22 05:18:10;;;;;;;1.83;1.10;;;16.30;95.20;;;;;;5075010;28;20028;-58
2021/05/22 05:20:35;;;;;;;1.65;0.80;;;17.80;90.80;;;;;;5074839;28;20017;-59
2021/05/22 05:23:01;;;;;;;1.67;0.90;;;18.20;88.10;;;;;;5075042;28;20527;-59
2021/05/22 05:25:26;;;;;;;1.92;0.90;;;17.80;85.90;;;;;;5073386;28;20165;-59
2021/05/22 05:27:52;;;;;;;1.70;1.00;;;17.50;87.00;;;;;;5073918;28;20036;-58
2021/05/22 05:30:18;;;;;;;1.98;0.77;;;17.20;87.40;;;;;;5073424;28;20112;-59
2021/05/22 05:32:44;;;;;;;1.52;0.82;;;16.80;88.20;;;;;;5074733;28;20368;-59
2021/05/22 05:35:10;;;;;;;1.42;0.90;;;16.50;89.80;;;;;;5074619;28;20030;-58
2021/05/22 05:37:36;;;;;;;1.13;0.88;;;16.20;89.90;;;;;;5074570;28;20029;-58
2021/05/22 05:40:02;;;;;;;1.73;1.17;;;16.00;90.10;;;;;;5073184;28;20029;-55
2021/05/22 05:42:28;;;;;;;1.77;1.00;;;15.80;89.50;;;;;;5073642;28;20013;-59
2021/05/22 05:44:53;;;;;;;1.00;0.90;;;15.70;90.10;;;;;;5074522;28;20096;-59
2021/05/22 05:47:19;;;;;;;2.53;1.27;;;15.70;90.00;;;;;;5074391;28;20020;-59
2021/05/22 05:49:44;;;;;;;1.85;1.15;;;15.90;86.90;;;;;;5074300;28;20060;-58
2021/05/22 05:52:10;;;;;;;1.25;1.00;;;16.00;85.70;;;;;;5088143;28;20054;-58
2021/05/22 05:54:36;;;;;;;2.63;0.90;;;16.20;85.80;;;;;;5094418;28;20118;-56
2021/05/22 05:57:01;;;;;;;2.42;1.50;;;16.60;85.60;;;;;;5085888;28;20028;-58
2021/05/22 05:59:27;;;;;;;2.63;1.13;;;16.80;82.00;;;;;;5073259;28;20025;-56
2021/05/22 06:01:52;;;;;;;3.00;1.80;;;16.90;81.50;;;;;;5072644;28;20027;-59
2021/05/22 06:04:18;;;;;;;1.88;0.93;;;16.90;80.50;;;;;;5074091;28;20025;-59
2021/05/22 06:06:43;;;;;;;2.65;1.20;;;16.70;81.60;;;;;;5073839;28;20039;-59
2021/05/22 06:09:09;;;;;;;2.50;1.20;;;16.60;82.50;;;;;;5066553;28;20428;-59
2021/05/22 06:11:36;;;;;;;3.92;1.00;;;16.30;82.60;;;;;;5072499;28;20453;-59
2021/05/22 06:14:02;;;;;;;1.25;1.10;;;16.00;84.00;;;;;;5072915;28;20024;-59
2021/05/22 06:16:34;;;;;;;1.17;0.98;;;15.80;84.40;;;;;;5072505;28;20025;-59
2021/05/22 06:19:00;;;;;;;0.88;0.70;;;15.60;85.10;;;;;;5073904;28;20024;-59
2021/05/22 06:21:26;;;;;;;9.35;1.17;;;15.50;86.20;;;;;;5073811;28;20198;-59
2021/05/22 06:23:51;;;;;;;1.58;0.93;;;15.20;86.90;;;;;;5073619;28;20025;-58
2021/05/22 06:26:17;;;;;;;5.60;1.40;;;15.10;88.40;;;;;;5073542;28;20104;-59
2021/05/22 06:28:43;;;;;;;1.10;0.77;;;14.80;88.90;;;;;;5072696;28;20025;-58
2021/05/22 06:31:09;;;;;;;2.15;1.35;;;14.60;90.80;;;;;;5073456;28;20025;-59
2021/05/22 06:33:35;;;;;;;1.80;0.85;;;14.30;92.20;;;;;;5073539;28;20509;-58
2021/05/22 06:36:02;;;;;;;3.17;1.00;;;14.00;93.30;;;;;;5073314;28;20138;-59
2021/05/22 06:38:27;;;;;;;1.88;1.40;;;13.90;94.50;;;;;;5073481;28;20384;-58
2021/05/22 06:40:53;;;;;;;0.95;0.80;;;13.80;96.00;;;;;;5073071;28;20032;-58
2021/05/22 06:43:19;;;;;;;1.33;1.10;;;13.60;97.60;;;;;;5072436;28;20020;-58
2021/05/22 06:45:47;;;;;;;3.33;1.10;;;13.50;99.00;;;;;;5073097;28;20025;-57
2021/05/22 06:48:13;;;;;;;2.95;1.27;;;13.50;99.80;;;;;;5073049;28;20103;-58
2021/05/22 06:50:40;;;;;;;9.57;1.52;;;13.50;99.90;;;;;;5072706;28;20017;-58
2021/05/22 06:53:07;;;;;;;3.50;1.33;;;13.50;99.90;;;;;;5071945;28;20025;-58
2021/05/22 06:55:33;;;;;;;2.40;1.10;;;13.50;99.90;;;;;;5072863;28;20036;-58
2021/05/22 06:57:59;;;;;;;2.95;1.20;;;13.50;99.90;;;;;;5072009;28;20074;-59
2021/05/22 07:00:26;;;;;;;2.90;1.88;;;13.50;99.90;;;;;;5072895;28;20017;-56
2021/05/22 07:02:51;;;;;;;3.20;1.67;;;13.50;99.90;;;;;;5072833;28;20017;-57
2021/05/22 07:05:17;;;;;;;3.58;2.30;;;13.80;99.90;;;;;;5071729;28;20020;-58
2021/05/22 07:07:43;;;;;;;4.50;2.30;;;14.20;99.90;;;;;;5072668;28;20033;-58
2021/05/22 07:10:12;;;;;;;2.88;1.83;;;14.80;99.90;;;;;;5072858;28;20464;-58
2021/05/22 07:12:38;;;;;;;1.92;1.30;;;16.40;97.60;;;;;;5071712;28;20024;-58
2021/05/22 07:15:07;;;;;;;2.75;1.63;;;18.60;91.80;;;;;;5071351;28;20086;-58
2021/05/22 07:17:33;;;;;;;5.28;1.48;;;19.70;86.50;;;;;;5072727;28;20379;-57
2021/05/22 07:19:58;;;;;;;2.47;1.30;;;19.70;83.90;;;;;;5087957;28;20021;-58
2021/05/22 07:22:24;;;;;;;3.47;1.38;;;19.80;82.50;;;;;;5072527;28;20406;-59
2021/05/22 07:24:50;;;;;;;1.40;1.30;;;19.90;81.70;;;;;;5072677;28;20051;-59
2021/05/22 07:27:16;;;;;;;1.30;1.00;;;20.00;79.50;;;;;;5071592;28;20032;-59
2021/05/22 07:29:43;;;;;;;1.00;0.85;;;20.10;79.80;;;;;;5072576;28;20116;-59
2021/05/22 07:32:08;;;;;;;1.73;0.90;;;20.30;79.00;;;;;;5072548;28;20028;-58
2021/05/22 07:34:34;;;;;;;2.60;1.20;;;20.60;74.80;;;;;;5072628;28;20031;-59
2021/05/22 07:36:59;;;;;;;3.03;1.00;;;20.60;76.30;;;;;;5072363;28;20024;-59
2021/05/22 07:39:25;;;;;;;1.17;0.80;;;20.70;76.00;;;;;;5072585;28;20049;-59
2021/05/22 07:41:50;;;;;;;3.63;1.13;;;20.90;74.80;;;;;;5072422;28;20095;-58
2021/05/22 07:44:16;;;;;;;1.70;1.05;;;20.70;72.60;;;;;;5071320;28;20027;-58
2021/05/22 07:46:42;;;;;;;1.67;1.00;;;20.70;73.70;;;;;;5072480;28;20024;-59
2021/05/22 07:49:08;;;;;;;3.03;1.17;;;20.70;74.30;;;;;;5072573;28;20598;-58
2021/05/22 07:51:34;;;;;;;2.97;1.08;;;20.40;74.30;;;;;;5080013;28;20111;-59
2021/05/22 07:54:00;;;;;;;1.98;1.13;;;20.20;74.70;;;;;;5092397;28;20024;-58
2021/05/22 07:56:26;;;;;;;1.15;0.90;;;20.10;74.70;;;;;;5092632;28;20039;-59
2021/05/22 07:58:51;;;;;;;1.23;0.90;;;20.00;72.30;;;;;;5090105;28;20024;-59
2021/05/22 08:01:17;;;;;;;1.13;0.90;;;19.80;74.10;;;;;;5092527;28;20032;-59
2021/05/22 08:03:42;;;;;;;3.08;0.93;;;19.60;74.30;;;;;;5092520;28;20504;-59
2021/05/22 08:06:08;;;;;;;2.70;0.90;;;19.50;74.10;;;;;;5092346;28;20074;-59
2021/05/22 08:08:33;;;;;;;2.38;1.00;;;19.90;73.30;;;;;;5081799;28;20025;-58
2021/05/22 08:10:59;;;;;;;4.07;1.02;;;21.00;70.30;;;;;;5072073;28;20024;-57
2021/05/22 08:13:28;;;;;;;2.00;0.82;;;21.60;67.50;;;;;;5071058;28;20107;-58
2021/05/22 08:15:57;;;;;;;1.75;0.77;;;21.80;66.30;;;;;;5072183;28;20035;-59
2021/05/22 08:18:23;;;;;;;2.05;0.82;;;22.00;63.10;;;;;;5072474;28;20376;-59
2021/05/22 08:20:50;;;;;;;1.70;0.90;;;21.90;63.40;;;;;;5072115;28;20428;-58
2021/05/22 08:23:15;;;;;;;4.20;1.02;;;21.90;63.30;;;;;;5072008;28;20040;-58
2021/05/22 08:25:41;;;;;;;6.00;0.90;;;22.30;62.90;;;;;;5072173;28;20017;-59
2021/05/22 08:28:08;;;;;;;2.28;0.93;;;22.90;60.00;;;;;;5069698;28;20071;-59
2021/05/22 08:30:33;;;;;;;4.82;1.00;;;23.30;59.40;;;;;;5071937;28;20115;-58
2021/05/22 08:33:01;;;;;;;2.33;0.75;;;23.00;59.10;;;;;;5070720;28;20490;-59
2021/05/22 08:35:27;;;;;;;1.58;0.90;;;22.80;59.20;;;;;;5074856;28;20392;-59
2021/05/22 08:37:52;;;;;;;0.93;0.70;;;22.60;58.80;;;;;;5075559;28;20024;-59
2021/05/22 08:40:18;;;;;;;1.50;0.60;;;23.20;57.50;;;;;;5075753;28;20468;-58
2021/05/22 08:42:43;;;;;;;4.05;0.80;;;23.80;57.10;;;;;;5073893;28;20112;-56
2021/05/22 08:45:12;;;;;;;1.10;0.82;;;24.50;54.30;;;;;;5075400;28;20388;-59
2021/05/22 08:47:37;;;;;;;2.47;0.85;;;26.00;53.80;;;;;;5075346;28;20028;-58
2021/05/22 08:50:06;;;;;;;1.30;0.80;;;26.10;53.60;;;;;;5075264;28;20357;-59
2021/05/22 08:52:31;;;;;;;2.85;1.00;;;26.30;51.30;;;;;;5092174;28;20044;-58
2021/05/22 08:54:57;;;;;;;4.95;0.80;;;26.20;53.20;;;;;;5094209;28;20058;-59
2021/05/22 08:57:22;;;;;;;2.28;0.70;;;26.90;51.30;;;;;;5094467;28;20028;-58
2021/05/22 08:59:49;;;;;;;1.90;0.70;;;27.90;49.40;;;;;;5095687;28;20024;-58
2021/05/22 09:02:21;;;;;;;1.60;0.60;;;28.80;49.60;;;;;;5095561;28;20027;-56
2021/05/22 09:05:11;;;;;;;2.95;0.80;;;28.10;48.70;;;;;;5095585;28;20024;-59
2021/05/22 09:07:43;;;;;;;2.63;1.20;;;28.70;44.90;;;;;;5092384;28;20507;-59
2021/05/22 09:10:11;;;;;;;2.13;0.63;;;28.90;46.10;;;;;;5075197;28;20064;-59
2021/05/22 09:12:41;;;;;;;11.75;1.50;;;29.50;46.40;;;;;;5074289;28;20090;-59
2021/05/22 09:15:34;;;;;;;3.22;0.90;;;30.00;41.50;;;;;;5074968;28;20119;-59
2021/05/22 09:18:05;;;;;;;3.42;0.95;;;30.00;41.30;;;;;;5074265;28;20040;-59
2021/05/22 09:20:41;;;;;;;3.38;0.70;;;30.40;41.80;;;;;;5075161;28;20099;-60
2021/05/22 09:23:15;;;;;;;3.13;0.90;;;30.70;41.70;;;;;;5074783;28;20032;-59
2021/05/22 09:25:42;;;;;;;5.20;1.25;;;31.20;41.30;;;;;;5074972;28;20028;-58
2021/05/22 09:28:10;;;;;;;4.47;0.90;;;30.90;40.30;;;;;;5073897;28;20394;-59
2021/05/22 09:30:37;;;;;;;2.72;0.98;;;30.20;41.70;;;;;;5074556;28;20029;-58
2021/05/22 09:33:09;;;;;;;5.43;1.27;;;29.80;41.60;;;;;;5074602;28;20146;-58
2021/05/22 09:35:34;;;;;;;3.67;0.77;;;29.00;39.90;;;;;;5066232;28;20024;-59
2021/05/22 09:38:01;;;;;;;2.42;0.88;;;29.50;40.30;;;;;;5073883;28;20041;-59
2021/05/22 09:40:35;;;;;;;6.93;1.00;;;29.50;38.60;;;;;;5074286;28;20036;-59
2021/05/22 09:43:04;;;;;;;4.25;1.20;;;29.70;38.20;;;;;;5073045;28;20238;-58
2021/05/22 09:45:38;;;;;;;2.22;1.10;;;29.60;37.90;;;;;;5074152;28;20021;-59
2021/05/22 09:48:13;;;;;;;2.10;0.77;;;29.20;37.80;;;;;;5074131;28;20021;-58
2021/05/22 09:50:43;;;;;;;3.47;1.35;;;28.50;38.50;;;;;;5075447;28;20048;-59
2021/05/22 09:53:48;;;;;;;3.20;0.70;;;27.10;40.20;;;;;;5094197;28;20499;-58
2021/05/22 09:56:16;;;;;;;3.25;0.95;;;26.00;40.10;;;;;;5012220;28;20038;-59
2021/05/22 09:58:49;;;;;;;3.38;0.93;;;25.50;41.50;;;;;;5080051;28;20048;-59
2021/05/22 10:01:15;;;;;;;2.25;1.15;;;25.10;42.20;;;;;;5094370;28;20023;-59
2021/05/22 10:03:41;;;;;;;6.78;1.00;;;24.80;42.60;;;;;;5094278;28;20467;-59
2021/05/22 10:06:07;;;;;;;1.83;0.80;;;24.50;42.80;;;;;;5094223;28;20100;-58
2021/05/22 10:08:33;;;;;;;4.55;1.08;;;24.30;42.90;;;;;;5083556;28;20063;-59
2021/05/22 10:10:59;;;;;;;2.88;1.02;;;23.90;42.90;;;;;;5074031;28;20035;-59
2021/05/22 10:13:27;;;;;;;4.55;1.30;;;23.60;43.00;;;;;;5072855;28;20028;-58
2021/05/22 10:16:01;;;;;;;6.10;1.20;;;23.20;43.70;;;;;;5073774;28;20020;-59
2021/05/22 10:18:31;;;;;;;10.82;1.17;;;22.80;44.10;;;;;;5073749;28;20475;-59
2021/05/22 10:21:00;;;;;;;23.67;2.90;;;22.40;44.00;;;;;;5073808;28;20471;-59
2021/05/22 10:23:26;;;;;;;4.22;1.25;;;22.20;44.60;;;;;;5073685;28;20021;-59
2021/05/22 10:25:54;;;;;;;5.10;0.80;;;22.00;44.30;;;;;;5073802;28;20020;-58
2021/05/22 10:28:20;;;;;;;4.88;1.15;;;21.80;44.30;;;;;;5072527;28;20399;-57
2021/05/22 10:30:47;;;;;;;3.78;0.90;;;21.40;44.80;;;;;;5073712;28;20532;-59
2021/05/22 10:33:15;;;;;;;5.47;1.48;;;21.30;45.30;;;;;;5073101;28;20024;-56
2021/05/22 10:35:53;;;;;;;3.47;1.05;;;21.10;46.10;;;;;;5070831;28;20009;-57
2021/05/22 10:38:42;;;;;;;7.03;1.23;;;21.00;46.20;;;;;;5068823;28;20032;-57
2021/05/22 10:41:11;;;;;;;4.55;0.93;;;20.80;47.10;;;;;;5073176;28;20375;-58
2021/05/22 10:43:45;;;;;;;4.40;1.02;;;20.60;47.40;;;;;;5072154;28;20369;-59
2021/05/22 10:46:11;;;;;;;2.38;0.68;;;20.50;47.90;;;;;;5072946;28;20024;-58
2021/05/22 10:48:39;;;;;;;5.85;1.00;;;20.30;47.60;;;;;;5073111;28;20151;-59
2021/05/22 10:51:38;;;;;;;3.30;0.93;;;20.30;47.50;;;;;;5077617;28;20027;-58
2021/05/22 10:54:06;;;;;;;2.53;1.50;;;20.20;47.70;;;;;;5085437;28;20131;-58
2021/05/22 10:56:32;;;;;;;3.00;0.90;;;20.20;47.40;;;;;;5052628;28;20041;-59
2021/05/22 10:59:00;;;;;;;5.28;1.00;;;20.20;47.70;;;;;;5052088;28;20376;-57
2021/05/22 11:01:26;;;;;;;4.72;0.90;;;20.40;46.50;;;;;;5053064;28;20758;-59
2021/05/22 11:04:07;;;;;;;6.78;0.88;;;20.50;45.90;;;;;;5054130;28;20049;-59
2021/05/22 11:06:44;;;;;;;3.38;0.77;;;20.80;45.90;;;;;;5064036;28;20029;-59
2021/05/22 11:09:29;;;;;;;4.28;0.90;;;20.90;43.80;;;;;;5069760;28;20376;-58
2021/05/22 11:11:55;;;;;;;4.05;1.00;;;20.90;43.40;;;;;;5068667;28;20039;-58
2021/05/22 11:14:39;;;;;;;1.45;0.90;;;20.90;44.30;;;;;;5061795;28;20024;-60
2021/05/22 11:17:20;;;;;;;2.72;1.00;;;20.90;44.90;;;;;;5070411;28;20107;-59
2021/05/22 11:20:09;;;;;;;3.05;1.10;;;21.00;45.40;;;;;;5070645;28;20477;-59
2021/05/22 11:22:49;;;;;;;7.15;1.00;;;21.00;46.10;;;;;;5070698;28;20372;-59
2021/05/22 11:25:18;;;;;;;3.33;0.88;;;20.80;45.50;;;;;;5070414;28;20016;-59
2021/05/22 11:28:01;;;;;;;2.92;1.00;;;20.80;45.60;;;;;;5069830;28;20037;-57
2021/05/22 11:30:38;;;;;;;13.40;1.35;;;20.90;45.90;;;;;;5070557;28;20557;-59
2021/05/22 11:33:10;;;;;;;1.55;0.60;;;21.10;46.00;;;;;;5070602;28;20103;-58
2021/05/22 11:35:42;;;;;;;0.77;0.40;;;21.00;44.90;;;;;;5056250;28;20031;-59
2021/05/22 11:38:20;;;;;;;2.05;0.63;;;20.90;45.50;;;;;;5060132;28;20025;-58
2021/05/22 11:40:49;;;;;;;4.35;1.08;;;20.80;46.70;;;;;;5070764;28;20024;-59
2021/05/22 11:43:14;;;;;;;2.85;1.00;;;20.70;46.40;;;;;;5069318;28;20066;-59
2021/05/22 11:45:41;;;;;;;8.55;1.20;;;20.50;46.90;;;;;;5069613;28;20099;-59
2021/05/22 11:48:44;;;;;;;3.45;0.90;;;20.20;47.40;;;;;;5070224;28;20170;-59
2021/05/22 11:51:25;;;;;;;4.07;0.73;;;20.10;47.60;;;;;;5074514;28;20092;-58
2021/05/22 11:54:03;;;;;;;2.70;0.60;;;20.00;47.10;;;;;;5070335;28;20024;-59
2021/05/22 11:56:31;;;;;;;2.05;0.95;;;20.00;46.90;;;;;;5068953;28;20037;-59
2021/05/22 11:58:58;;;;;;;3.75;0.75;;;20.00;46.30;;;;;;5068193;28;20056;-59
2021/05/22 12:01:30;;;;;;;2.10;0.68;;;20.00;46.50;;;;;;5070505;28;20050;-59
2021/05/22 12:04:01;;;;;;;5.57;0.60;;;19.90;46.50;;;;;;5070219;28;20428;-58
2021/05/22 12:06:41;;;;;;;7.95;1.58;;;19.90;46.40;;;;;;5070503;28;20039;-59
2021/05/22 12:09:12;;;;;;;6.63;0.90;;;20.10;45.90;;;;;;5073089;28;20020;-59
2021/05/22 12:11:53;;;;;;;4.28;0.68;;;20.20;45.90;;;;;;5074606;28;20028;-56
2021/05/22 12:14:19;;;;;;;2.10;0.73;;;20.20;45.90;;;;;;5073509;28;20032;-59
2021/05/22 12:16:46;;;;;;;2.25;0.60;;;20.40;46.00;;;;;;5074416;28;20028;-59
2021/05/22 12:19:17;;;;;;;4.07;0.90;;;20.50;45.90;;;;;;5074377;28;20027;-59
2021/05/22 12:21:53;;;;;;;4.78;0.68;;;20.40;45.90;;;;;;5074268;28;20024;-61
2021/05/22 12:24:21;;;;;;;11.85;1.00;;;20.20;46.40;;;;;;5074178;28;20029;-59
2021/05/22 12:26:54;;;;;;;6.00;1.10;;;20.10;46.30;;;;;;5069941;28;20063;-59
2021/05/22 12:29:23;;;;;;;4.85;0.93;;;20.00;46.60;;;;;;5073086;28;20062;-59
2021/05/22 12:31:55;;;;;;;1.77;0.80;;;19.90;46.40;;;;;;5074268;28;20027;-59
2021/05/22 12:34:27;;;;;;;4.00;0.70;;;20.00;46.40;;;;;;5073737;28;20033;-58
2021/05/22 12:37:00;;;;;;;2.72;0.60;;;20.30;46.30;;;;;;5074120;28;20093;-58
2021/05/22 12:39:34;;;;;;;3.10;0.55;;;20.50;46.30;;;;;;5068769;28;20019;-59
2021/05/22 12:41:59;;;;;;;4.03;1.15;;;20.50;46.50;;;;;;5074264;28;20033;-57
2021/05/22 12:44:25;;;;;;;3.17;0.60;;;20.40;46.50;;;;;;5072661;28;20138;-59
2021/05/22 12:46:57;;;;;;;2.75;0.90;;;20.20;46.70;;;;;;5073790;28;20418;-57
2021/05/22 12:49:23;;;;;;;3.70;0.85;;;20.00;46.60;;;;;;5073272;28;20475;-59
2021/05/22 12:52:10;;;;;;;1.00;0.47;;;19.80;46.90;;;;;;5075362;28;20037;-59
2021/05/22 12:54:35;;;;;;;4.22;0.82;;;19.80;47.00;;;;;;5072947;28;20075;-56
2021/05/22 12:57:13;;;;;;;1.02;0.55;;;20.00;47.30;;;;;;5072232;28;20055;-59